Time;durP1;ratioP1;P1;durP2;ratioP2;P2;SDS_P1;SDS_P2;PMS_P1;PMS_P2;Temp;Humidity;BMP_temperature;BMP_pressure;BME280_temperature;BME280_humidity;BME280_pressure;Samples;Min_cycle;Max_cycle;Signal;HPM_P1;HPM_P2
2023/03/14 00:02:16;;;;;;;8.02;1.55;;;;;;;11.53;80.43;98851.69;5069193;28;20052;-76
2023/03/14 00:04:44;;;;;;;6.38;2.00;;;;;;;11.55;80.33;98841.91;5068671;28;20041;-71
2023/03/14 00:07:12;;;;;;;8.13;1.65;;;;;;;11.57;80.06;98848.75;5066433;28;20095;-72
2023/03/14 00:09:40;;;;;;;10.27;1.80;;;;;;;11.58;80.20;98845.16;5068813;28;20922;-75
2023/03/14 00:12:09;;;;;;;7.65;1.73;;;;;;;11.62;80.18;98840.53;5068513;28;20128;-74
2023/03/14 00:14:36;;;;;;;7.82;2.03;;;;;;;11.66;79.92;98847.28;5068668;28;20104;-73
2023/03/14 00:17:03;;;;;;;5.25;1.30;;;;;;;11.64;79.81;98833.38;5067877;28;20048;-75
2023/03/14 00:19:30;;;;;;;7.10;1.60;;;;;;;11.65;80.04;98833.25;5071986;28;20041;-75
2023/03/14 00:21:57;;;;;;;6.88;1.65;;;;;;;11.66;80.11;98826.16;5066772;28;20051;-75
2023/03/14 00:24:24;;;;;;;6.28;1.30;;;;;;;11.65;79.39;98827.97;5067928;28;20045;-74
2023/03/14 00:26:51;;;;;;;4.65;1.45;;;;;;;11.64;79.20;98828.91;5059630;28;20124;-75
2023/03/14 00:29:18;;;;;;;5.32;1.60;;;;;;;11.63;78.87;98829.88;5077559;28;20041;-75
2023/03/14 00:31:45;;;;;;;6.55;1.40;;;;;;;11.62;78.71;98827.34;5064165;28;20142;-75
2023/03/14 00:34:12;;;;;;;6.22;1.27;;;;;;;11.63;78.15;98826.41;5067398;28;20045;-78
2023/03/14 00:36:39;;;;;;;5.43;1.10;;;;;;;11.63;78.65;98823.75;5064696;28;20045;-78
2023/03/14 00:39:06;;;;;;;6.80;1.30;;;;;;;11.63;78.40;98834.31;5060805;28;20047;-75
2023/03/14 00:41:33;;;;;;;6.53;0.98;;;;;;;11.63;77.99;98829.03;5062118;28;20033;-74
2023/03/14 00:44:00;;;;;;;4.28;1.20;;;;;;;11.61;78.13;98830.91;5064592;28;20049;-75
2023/03/14 00:46:27;;;;;;;5.82;1.17;;;;;;;11.60;77.75;98832.69;5066392;28;20045;-73
2023/03/14 00:48:54;;;;;;;4.15;1.30;;;;;;;11.61;77.67;98831.75;5061797;28;20045;-74
2023/03/14 00:51:22;;;;;;;4.28;0.93;;;;;;;11.60;77.51;98835.34;5065283;28;20126;-75
2023/03/14 00:53:50;;;;;;;4.32;1.10;;;;;;;11.58;77.49;98834.63;5066702;28;20045;-75
2023/03/14 00:56:17;;;;;;;8.75;1.20;;;;;;;11.58;77.80;98846.94;5065956;28;20469;-74
2023/03/14 00:58:44;;;;;;;4.32;1.10;;;;;;;11.57;77.08;98854.03;5067878;28;20068;-75
2023/03/14 01:01:18;;;;;;;5.90;1.45;;;;;;;11.56;76.42;98868.16;5064742;28;20512;-75
2023/03/14 01:03:46;;;;;;;5.45;1.25;;;;;;;11.53;74.62;98863.09;5063246;28;20120;-76
2023/03/14 01:06:22;;;;;;;6.95;1.42;;;;;;;11.54;73.86;98877.16;5063295;28;20041;-75
2023/03/14 01:08:50;;;;;;;4.78;0.85;;;;;;;11.51;72.76;98886.09;5065181;28;20041;-75
2023/03/14 01:11:31;;;;;;;10.52;1.33;;;;;;;11.47;73.52;98877.53;5063536;28;20045;-77
2023/03/14 01:13:59;;;;;;;4.38;1.02;;;;;;;11.44;73.67;98876.88;5059540;28;20045;-77
2023/03/14 01:16:33;;;;;;;3.83;0.90;;;;;;;11.42;73.23;98871.72;5064870;28;20395;-76
2023/03/14 01:19:02;;;;;;;6.13;1.27;;;;;;;11.41;72.79;98862.09;5062594;28;20425;-78
2023/03/14 01:21:34;;;;;;;6.80;1.20;;;;;;;11.43;71.37;98867.28;5063456;28;20517;-77
2023/03/14 01:24:04;;;;;;;5.70;1.38;;;;;;;11.41;72.06;98862.09;5066405;28;20033;-77
2023/03/14 01:26:35;;;;;;;3.63;0.95;;;;;;;11.39;72.39;98861.34;5066827;28;20737;-77
2023/03/14 01:29:04;;;;;;;5.78;1.05;;;;;;;11.36;72.84;98861.53;5078856;28;20095;-77
2023/03/14 01:31:35;;;;;;;4.85;0.93;;;;;;;11.34;72.62;98851.09;5078180;28;20045;-74
2023/03/14 01:34:03;;;;;;;4.30;0.90;;;;;;;11.33;72.21;98853.84;5063095;28;21880;-74
2023/03/14 01:36:30;;;;;;;4.82;0.80;;;;;;;11.34;71.31;98855.56;5060042;28;20047;-74
2023/03/14 01:39:00;;;;;;;5.45;0.93;;;;;;;11.31;71.84;98846.03;5062867;28;20051;-74
2023/03/14 01:41:27;;;;;;;4.65;0.88;;;;;;;11.29;71.68;98839.16;5067032;28;20049;-73
2023/03/14 01:43:57;;;;;;;6.32;0.85;;;;;;;11.25;71.67;98833.25;5065074;28;20064;-74
2023/03/14 01:46:33;;;;;;;6.82;1.13;;;;;;;11.23;72.07;98821.09;5061699;28;20118;-74
2023/03/14 01:49:16;;;;;;;6.80;1.10;;;;;;;11.20;71.93;98830.03;5061014;28;20053;-74
2023/03/14 01:52:15;;;;;;;5.88;0.80;;;;;;;11.15;72.35;98825.06;5074734;28;20045;-74
2023/03/14 01:54:47;;;;;;;5.95;0.95;;;;;;;11.10;72.59;98824.53;5063151;28;20532;-74
2023/03/14 01:57:28;;;;;;;4.13;0.77;;;;;;;11.09;72.52;98814.94;5063556;28;20099;-74
2023/03/14 02:00:11;;;;;;;5.07;0.95;;;;;;;11.06;72.56;98820.41;5063092;28;20037;-75
2023/03/14 02:02:47;;;;;;;4.10;1.00;;;;;;;11.07;72.22;98815.97;5051625;28;20048;-74
2023/03/14 02:05:25;;;;;;;;;;;;;;;11.01;72.81;98807.50;5063761;28;20045;-75
2023/03/14 02:08:01;;;;;;;10.60;1.20;;;;;;;11.02;72.27;98813.66;5064457;28;20456;-74
2023/03/14 02:10:40;;;;;;;4.85;1.00;;;;;;;10.98;72.72;98807.72;5050764;28;20046;-74
2023/03/14 02:13:11;;;;;;;5.10;0.90;;;;;;;10.97;72.63;98810.44;5063790;28;20037;-74
2023/03/14 02:15:48;;;;;;;4.45;0.80;;;;;;;10.95;72.86;98812.31;5063059;28;20123;-74
2023/03/14 02:18:33;;;;;;;7.00;1.08;;;;;;;10.96;72.79;98812.25;5067227;28;20037;-73
2023/03/14 02:22:06;;;;;;;7.72;1.42;;;;;;;10.95;73.23;98812.31;5065355;28;20049;-73
2023/03/14 02:24:57;;;;;;;4.38;0.80;;;;;;;10.95;73.52;98814.97;5061111;28;20057;-75
2023/03/14 02:27:26;;;;;;;6.65;1.35;;;;;;;10.94;73.66;98808.84;5065460;28;20059;-75
2023/03/14 02:30:05;;;;;;;6.20;1.25;;;;;;;10.94;73.75;98808.84;5066414;28;20044;-75
2023/03/14 02:32:37;;;;;;;6.25;1.05;;;;;;;10.93;73.69;98809.78;5064334;28;20044;-75
2023/03/14 02:35:12;;;;;;;4.45;0.90;;;;;;;10.96;73.79;98811.38;5066962;28;20556;-75
2023/03/14 02:38:24;;;;;;;2.85;0.80;;;;;;;10.96;73.57;98812.25;5063294;28;20535;-74
2023/03/14 02:40:51;;;;;;;5.03;0.77;;;;;;;10.94;73.79;98814.13;5054395;28;20057;-74
2023/03/14 02:43:19;;;;;;;4.13;1.23;;;;;;;10.94;74.07;98808.00;5063231;28;20817;-74
2023/03/14 02:45:53;;;;;;;3.95;0.90;;;;;;;10.92;74.07;98800.19;5061493;28;20040;-74
2023/03/14 02:48:27;;;;;;;7.47;1.10;;;;;;;10.94;74.14;98811.50;5063150;28;20208;-74
2023/03/14 02:50:59;;;;;;;4.63;0.98;;;;;;;10.92;74.30;98802.00;5063491;28;20041;-74
2023/03/14 02:53:31;;;;;;;5.85;1.33;;;;;;;10.92;74.37;98802.81;5063435;28;20071;-75
2023/03/14 02:56:03;;;;;;;6.13;1.08;;;;;;;10.91;74.57;98798.50;5062695;28;20711;-74
2023/03/14 02:58:32;;;;;;;4.65;1.33;;;;;;;10.90;74.87;98798.59;5062324;28;20092;-74
2023/03/14 03:01:07;;;;;;;6.13;1.20;;;;;;;10.87;75.08;98797.03;5066764;28;20033;-72
2023/03/14 03:03:34;;;;;;;7.88;1.27;;;;;;;10.83;75.46;98798.16;5068585;28;20712;-74
2023/03/14 03:06:01;;;;;;;5.25;0.93;;;;;;;10.77;75.53;98799.38;5067077;28;20949;-75
2023/03/14 03:08:29;;;;;;;5.82;1.23;;;;;;;10.72;76.20;98801.47;5082375;28;20120;-75
2023/03/14 03:10:58;;;;;;;5.22;1.20;;;;;;;10.70;76.37;98803.38;5067582;28;20072;-75
2023/03/14 03:13:27;;;;;;;6.05;1.30;;;;;;;10.67;76.65;98795.66;5067100;28;20120;-74
2023/03/14 03:15:56;;;;;;;6.10;1.25;;;;;;;10.66;76.89;98805.34;5067585;28;20045;-74
2023/03/14 03:18:23;;;;;;;7.25;1.40;;;;;;;10.62;77.09;98798.56;5062310;28;20033;-74
2023/03/14 03:20:50;;;;;;;7.07;1.33;;;;;;;10.63;77.36;98802.06;5065314;28;20048;-74
2023/03/14 03:23:17;;;;;;;8.23;1.40;;;;;;;10.63;77.75;98809.97;5065340;28;20052;-73
2023/03/14 03:25:51;;;;;;;7.32;1.38;;;;;;;10.59;77.79;98804.03;5068637;28;20891;-74
2023/03/14 03:28:19;;;;;;;6.47;1.77;;;;;;;10.57;78.07;98795.41;5063495;28;20041;-73
2023/03/14 03:30:46;;;;;;;5.38;1.38;;;;;;;10.55;78.10;98792.84;5077657;28;20138;-76
2023/03/14 03:33:14;;;;;;;5.28;1.05;;;;;;;10.54;78.14;98792.94;5066245;28;20045;-76
2023/03/14 03:35:49;;;;;;;5.65;1.17;;;;;;;10.54;78.50;98799.03;5065028;28;20602;-75
2023/03/14 03:38:26;;;;;;;7.05;1.52;;;;;;;10.52;78.41;98800.94;5062330;28;20092;-75
2023/03/14 03:40:55;;;;;;;9.23;1.80;;;;;;;10.52;78.56;98800.94;5067293;28;20045;-75
2023/03/14 03:43:25;;;;;;;7.82;1.42;;;;;;;10.51;78.44;98794.00;5070411;28;21006;-75
2023/03/14 03:45:52;;;;;;;10.15;1.73;;;;;;;10.51;78.63;98794.00;5065103;28;20045;-75
2023/03/14 03:48:22;;;;;;;7.63;1.27;;;;;;;10.51;78.73;98793.13;5061884;28;20584;-76
2023/03/14 03:50:49;;;;;;;9.02;1.45;;;;;;;10.49;78.96;98793.22;5066377;28;20952;-74
2023/03/14 03:53:19;;;;;;;8.15;1.50;;;;;;;10.48;78.91;98785.44;5066526;28;20123;-75
2023/03/14 03:56:02;;;;;;;6.95;1.35;;;;;;;10.47;78.91;98786.38;5062139;28;20116;-74
2023/03/14 03:58:29;;;;;;;10.82;2.20;;;;;;;10.46;78.94;98785.50;5066479;28;20045;-74
2023/03/14 04:00:57;;;;;;;9.10;1.42;;;;;;;10.47;78.94;98778.47;5071862;28;20492;-75
2023/03/14 04:03:25;;;;;;;5.63;1.20;;;;;;;10.46;78.86;98787.31;5065165;28;20136;-75
2023/03/14 04:06:08;;;;;;;8.93;1.58;;;;;;;10.46;78.92;98780.25;5062878;28;20985;-75
2023/03/14 04:08:40;;;;;;;5.90;1.23;;;;;;;10.43;78.93;98772.53;5059648;28;21428;-73
2023/03/14 04:11:10;;;;;;;8.43;1.25;;;;;;;10.44;78.95;98773.38;5062353;28;20045;-72
2023/03/14 04:13:55;;;;;;;7.43;1.27;;;;;;;10.41;78.86;98769.16;5062218;28;20053;-72
2023/03/14 04:16:25;;;;;;;5.65;1.02;;;;;;;10.41;78.86;98769.16;5063713;28;20130;-72
2023/03/14 04:18:58;;;;;;;8.15;1.52;;;;;;;10.40;78.91;98765.66;5064795;28;20095;-72
2023/03/14 04:21:26;;;;;;;5.55;1.13;;;;;;;10.38;78.91;98761.44;5064998;28;20129;-75
2023/03/14 04:23:56;;;;;;;8.07;1.33;;;;;;;10.36;79.09;98768.56;5063662;28;20053;-75
2023/03/14 04:26:25;;;;;;;5.30;1.40;;;;;;;10.38;79.09;98769.34;5063520;28;20061;-75
2023/03/14 04:28:52;;;;;;;9.13;1.20;;;;;;;10.35;78.95;98767.72;5069616;28;20041;-75
2023/03/14 04:31:22;;;;;;;7.55;1.20;;;;;;;10.34;78.98;98775.69;5081658;28;20592;-75
2023/03/14 04:33:51;;;;;;;6.85;1.42;;;;;;;10.30;78.84;98768.94;5092609;28;20122;-76
2023/03/14 04:36:24;;;;;;;4.47;1.33;;;;;;;10.26;79.13;98768.31;5063830;28;20057;-75
2023/03/14 04:38:52;;;;;;;6.18;1.10;;;;;;;10.24;79.13;98767.53;5063889;28;20045;-74
2023/03/14 04:41:20;;;;;;;6.35;1.08;;;;;;;10.21;79.08;98744.03;5064337;28;20039;-75
2023/03/14 04:43:47;;;;;;;7.60;1.48;;;;;;;10.13;78.59;98749.75;5061644;28;20516;-74
2023/03/14 04:46:15;;;;;;;5.53;1.17;;;;;;;10.03;78.61;98743.38;5063756;28;20512;-74
2023/03/14 04:48:42;;;;;;;5.53;0.80;;;;;;;9.95;78.77;98746.50;5063737;28;20045;-74
2023/03/14 04:51:09;;;;;;;3.58;1.00;;;;;;;9.87;78.89;98751.38;5075179;28;20051;-74
2023/03/14 04:53:36;;;;;;;5.20;0.95;;;;;;;9.78;78.92;98745.72;5062098;28;20037;-75
2023/03/14 04:56:08;;;;;;;5.68;1.05;;;;;;;9.71;79.35;98744.41;5064090;28;20115;-74
2023/03/14 04:58:39;;;;;;;5.10;0.90;;;;;;;9.68;79.79;98752.47;5064211;28;20119;-74
2023/03/14 05:01:07;;;;;;;4.85;1.10;;;;;;;9.69;79.97;98748.06;5066052;28;20158;-74
2023/03/14 05:03:42;;;;;;;4.97;1.10;;;;;;;9.71;80.26;98748.84;5066187;28;20852;-75
2023/03/14 05:06:21;;;;;;;5.13;0.80;;;;;;;9.70;80.38;98749.75;5062502;28;20501;-74
2023/03/14 05:09:04;;;;;;;5.57;1.20;;;;;;;9.65;80.60;98744.78;5063998;28;20154;-75
2023/03/14 05:11:59;;;;;;;6.75;1.00;;;;;;;9.63;80.99;98749.28;5061734;28;20041;-74
2023/03/14 05:14:55;;;;;;;4.32;0.98;;;;;;;9.59;81.36;98746.00;5058691;28;20061;-75
2023/03/14 05:17:39;;;;;;;4.82;0.73;;;;;;;9.58;81.80;98740.81;5061870;28;20041;-74
2023/03/14 05:20:43;;;;;;;2.20;0.50;;;;;;;9.58;82.37;98746.06;5056558;28;20138;-74
2023/03/14 05:23:29;;;;;;;5.45;0.88;;;;;;;9.62;82.76;98750.22;5062872;28;20051;-74
2023/03/14 05:26:16;;;;;;;4.00;0.80;;;;;;;9.67;83.53;98740.25;5062402;28;20033;-73
2023/03/14 05:28:53;;;;;;;5.32;0.80;;;;;;;9.68;83.71;98736.69;5065701;28;20041;-76
2023/03/14 05:31:49;;;;;;;2.30;0.77;;;;;;;9.70;84.02;98739.25;5022373;28;20099;-75
2023/03/14 05:34:36;;;;;;;2.50;0.80;;;;;;;9.68;85.18;98731.41;5060440;28;20061;-76
2023/03/14 05:37:26;;;;;;;3.28;0.98;;;;;;;9.64;85.30;98737.81;5061241;28;20045;-75
2023/03/14 05:40:08;;;;;;;3.17;0.93;;;;;;;9.60;85.59;98733.66;5062822;28;20045;-75
2023/03/14 05:43:01;;;;;;;4.97;1.17;;;;;;;9.57;85.91;98733.84;5064359;28;20064;-76
2023/03/14 05:45:37;;;;;;;3.25;1.02;;;;;;;9.56;86.30;98747.97;5064803;28;20492;-76
2023/03/14 05:48:24;;;;;;;6.38;1.15;;;;;;;9.54;86.74;98750.66;5048551;28;20064;-76
2023/03/14 05:51:12;;;;;;;4.75;1.23;;;;;;;9.63;87.40;98744.84;5063860;28;20913;-76
2023/03/14 05:53:49;;;;;;;4.05;1.10;;;;;;;9.70;87.75;98744.50;5062526;28;20045;-75
2023/03/14 05:56:43;;;;;;;3.72;1.27;;;;;;;9.79;88.10;98742.16;5052925;28;20065;-76
2023/03/14 05:59:16;;;;;;;3.87;1.30;;;;;;;9.91;88.49;98739.72;5061780;28;20110;-76
2023/03/14 06:02:03;;;;;;;3.90;1.40;;;;;;;10.01;88.63;98740.84;5062027;28;20525;-76
2023/03/14 06:04:41;;;;;;;3.53;1.40;;;;;;;10.07;88.29;98739.63;5060886;28;20048;-76
2023/03/14 06:07:08;;;;;;;5.03;1.35;;;;;;;10.12;88.12;98732.31;5060688;28;20041;-76
2023/03/14 06:09:35;;;;;;;5.93;1.65;;;;;;;10.20;88.30;98721.25;5061535;28;20048;-76
2023/03/14 06:12:03;;;;;;;4.63;1.60;;;;;;;10.24;87.99;98713.06;5066008;28;20059;-75
2023/03/14 06:14:36;;;;;;;5.15;1.40;;;;;;;10.28;87.97;98720.78;5069196;28;20838;-74
2023/03/14 06:17:03;;;;;;;4.85;1.90;;;;;;;10.25;87.25;98714.78;5067260;28;20103;-75
2023/03/14 06:19:37;;;;;;;4.43;1.75;;;;;;;10.14;86.89;98709.31;5076173;28;20157;-75
2023/03/14 06:22:04;;;;;;;3.15;1.48;;;;;;;10.06;87.00;98712.47;5063287;28;20053;-75
2023/03/14 06:24:34;;;;;;;6.35;2.13;;;;;;;10.02;87.27;98710.13;5060722;28;20497;-75
2023/03/14 06:27:02;;;;;;;4.25;1.90;;;;;;;9.98;87.38;98706.81;5063545;28;20039;-75
2023/03/14 06:29:30;;;;;;;4.95;2.20;;;;;;;9.94;87.57;98707.94;5064114;28;20048;-75
2023/03/14 06:31:58;;;;;;;3.55;1.90;;;;;;;9.94;87.59;98713.22;5060428;28;20056;-77
2023/03/14 06:34:26;;;;;;;6.22;2.42;;;;;;;9.93;88.07;98708.88;5065791;28;20075;-76
2023/03/14 06:36:53;;;;;;;3.92;1.90;;;;;;;9.94;88.16;98714.03;5062065;28;20045;-77
2023/03/14 06:39:20;;;;;;;6.07;2.40;;;;;;;9.97;87.98;98722.69;5066054;28;20045;-77
2023/03/14 06:41:54;;;;;;;4.35;2.03;;;;;;;9.98;88.63;98722.59;5065843;28;20049;-76
2023/03/14 06:44:21;;;;;;;5.13;2.65;;;;;;;10.01;88.71;98719.78;5066649;28;20144;-77
2023/03/14 06:46:48;;;;;;;6.65;2.50;;;;;;;10.04;88.62;98724.00;5066742;28;20572;-77
2023/03/14 06:49:15;;;;;;;7.07;2.88;;;;;;;10.03;89.11;98719.69;5067482;28;20033;-77
2023/03/14 06:51:43;;;;;;;7.55;3.00;;;;;;;10.04;89.21;98724.88;5066731;28;20047;-76
2023/03/14 06:54:11;;;;;;;5.43;2.80;;;;;;;10.05;89.32;98734.47;5063676;28;20169;-77
2023/03/14 06:56:39;;;;;;;5.38;2.90;;;;;;;10.08;89.41;98726.34;5066862;28;20051;-76
2023/03/14 06:59:06;;;;;;;6.18;3.05;;;;;;;10.12;89.75;98732.31;5082991;28;20103;-77
2023/03/14 07:01:34;;;;;;;5.88;2.90;;;;;;;10.17;89.84;98727.56;5065972;28;20045;-76
2023/03/14 07:04:06;;;;;;;6.85;3.13;;;;;;;10.23;89.91;98732.44;5066368;28;20107;-77
2023/03/14 07:06:35;;;;;;;6.18;2.70;;;;;;;10.31;89.63;98742.50;5065963;28;20045;-77
2023/03/14 07:09:04;;;;;;;5.28;3.00;;;;;;;10.31;89.80;98734.59;5066656;28;20045;-76
2023/03/14 07:11:34;;;;;;;4.95;2.88;;;;;;;10.33;89.77;98738.00;5063576;28;20095;-76
2023/03/14 07:14:02;;;;;;;5.70;2.80;;;;;;;10.37;89.97;98733.38;5068096;28;20045;-76
2023/03/14 07:16:32;;;;;;;4.88;2.97;;;;;;;10.41;89.94;98741.03;5067113;28;20067;-77
2023/03/14 07:19:01;;;;;;;5.80;2.75;;;;;;;10.51;89.73;98750.97;5067516;28;20041;-76
2023/03/14 07:21:29;;;;;;;4.15;2.70;;;;;;;10.63;89.38;98750.19;5064854;28;20044;-76
2023/03/14 07:23:56;;;;;;;4.22;2.40;;;;;;;10.69;89.25;98754.22;5067729;28;20041;-76
2023/03/14 07:26:23;;;;;;;4.43;2.45;;;;;;;10.79;88.76;98750.06;5070620;28;20044;-77
2023/03/14 07:28:52;;;;;;;5.13;2.55;;;;;;;10.84;88.60;98755.88;5068664;28;20049;-77
2023/03/14 07:31:21;;;;;;;6.03;2.40;;;;;;;10.93;88.29;98761.50;5067731;28;20045;-77
2023/03/14 07:33:48;;;;;;;7.95;2.30;;;;;;;11.01;88.49;98767.13;5068252;28;20045;-78
2023/03/14 07:36:17;;;;;;;5.05;2.33;;;;;;;11.02;88.14;98769.66;5067606;28;20088;-77
2023/03/14 07:38:46;;;;;;;5.68;2.40;;;;;;;11.00;87.92;98775.97;5068168;28;20559;-77
2023/03/14 07:41:36;;;;;;;3.88;1.88;;;;;;;10.93;88.01;98775.53;5061358;28;20060;-77
2023/03/14 07:44:22;;;;;;;4.53;1.88;;;;;;;10.88;88.29;98775.00;5067519;28;20048;-77
2023/03/14 07:46:49;;;;;;;5.65;2.00;;;;;;;10.84;88.39;98778.75;5068480;28;20052;-77
2023/03/14 07:49:16;;;;;;;4.75;1.92;;;;;;;10.76;88.72;98792.41;5067816;28;20048;-78
2023/03/14 07:51:46;;;;;;;7.00;2.33;;;;;;;10.70;88.58;98787.56;5069995;28;20045;-78
2023/03/14 07:54:13;;;;;;;4.65;2.20;;;;;;;10.65;88.92;98808.94;5069550;28;20111;-78
2023/03/14 07:56:40;;;;;;;4.50;1.60;;;;;;;10.61;89.76;98878.56;5070930;28;20512;-80
2023/03/14 07:59:07;;;;;;;1.83;0.63;;;;;;;10.08;82.62;98884.31;5081859;28;20052;-80
2023/03/14 08:01:34;;;;;;;1.33;0.38;;;;;;;9.44;84.23;98884.50;5068519;28;20037;-78
2023/03/14 08:04:01;;;;;;;2.35;0.40;;;;;;;9.01;86.37;98889.53;5069124;28;20072;-78
2023/03/14 08:06:28;;;;;;;2.75;1.00;;;;;;;8.73;87.99;98901.56;5071177;28;20089;-79
2023/03/14 08:08:55;;;;;;;4.20;1.38;;;;;;;8.57;89.22;98916.41;5069602;28;20094;-79
2023/03/14 08:11:22;;;;;;;2.38;0.70;;;;;;;8.39;89.11;98932.19;5070693;28;20063;-80
2023/03/14 08:13:50;;;;;;;2.50;0.73;;;;;;;8.15;89.32;98927.25;5071019;28;20052;-82
2023/03/14 08:16:18;;;;;;;2.40;0.63;;;;;;;7.96;90.40;98945.72;5068891;28;20561;-80
2023/03/14 08:18:46;;;;;;;0.82;0.50;;;;;;;7.81;91.75;98933.34;5082800;28;20080;-79
2023/03/14 08:21:13;;;;;;;2.10;0.63;;;;;;;7.68;93.18;98949.66;5070376;28;20040;-78
2023/03/14 08:23:40;;;;;;;3.10;0.90;;;;;;;7.62;94.13;98955.22;5068939;28;20128;-80
2023/03/14 08:26:07;;;;;;;2.10;1.00;;;;;;;7.55;94.60;98964.31;5068951;28;20041;-78
2023/03/14 08:28:34;;;;;;;2.45;0.90;;;;;;;7.50;95.05;98967.16;5069447;28;20041;-78
2023/03/14 08:31:02;;;;;;;1.38;0.88;;;;;;;7.43;95.19;98965.72;5068582;28;20580;-79
2023/03/14 08:33:30;;;;;;;2.42;0.80;;;;;;;7.36;95.69;98975.69;5069339;28;20048;-78
2023/03/14 08:36:00;;;;;;;1.38;0.68;;;;;;;7.33;96.45;98996.78;5069251;28;20049;-82
2023/03/14 08:38:27;;;;;;;3.30;1.25;;;;;;;7.32;96.58;99005.56;5071602;28;20087;-79
2023/03/14 08:41:00;;;;;;;4.00;1.67;;;;;;;7.31;96.97;99016.97;5070141;28;20051;-79
2023/03/14 08:43:28;;;;;;;4.65;2.25;;;;;;;7.35;97.58;99015.06;5068478;28;20497;-79
2023/03/14 08:46:00;;;;;;;4.07;2.08;;;;;;;7.44;96.92;99007.63;5069073;28;20037;-80
2023/03/14 08:48:30;;;;;;;2.80;1.80;;;;;;;7.55;96.44;99022.84;5068861;28;20120;-78
2023/03/14 08:51:07;;;;;;;4.05;2.10;;;;;;;7.68;95.69;99036.22;5061331;28;20053;-78
2023/03/14 08:53:34;;;;;;;3.83;1.60;;;;;;;7.73;95.45;99051.78;5049237;28;20041;-79
2023/03/14 08:56:02;;;;;;;3.92;1.58;;;;;;;7.77;95.82;99064.69;5046769;28;20048;-78
2023/03/14 08:58:29;;;;;;;2.00;1.20;;;;;;;7.80;94.81;99075.91;5048528;28;20044;-79
2023/03/14 09:00:56;;;;;;;3.28;1.60;;;;;;;7.93;94.34;99082.31;5050694;28;20065;-79
2023/03/14 09:03:25;;;;;;;4.93;2.40;;;;;;;8.01;93.76;99085.41;5068204;28;20037;-78
2023/03/14 09:05:52;;;;;;;4.40;1.80;;;;;;;8.06;92.52;99099.19;5077139;28;20058;-78
2023/03/14 09:08:19;;;;;;;6.50;2.60;;;;;;;8.14;93.03;99097.94;5067722;28;20045;-78
2023/03/14 09:10:46;;;;;;;5.10;2.05;;;;;;;8.16;92.97;99103.97;5068845;28;20052;-78
2023/03/14 09:13:13;;;;;;;5.13;1.80;;;;;;;8.09;92.58;99113.91;5067652;28;20051;-78
2023/03/14 09:15:42;;;;;;;1.20;0.82;;;;;;;7.99;90.71;99137.09;5067612;28;20053;-77
2023/03/14 09:18:09;;;;;;;2.75;0.93;;;;;;;7.89;90.44;99151.56;5068602;28;20044;-78
2023/03/14 09:20:36;;;;;;;3.40;1.33;;;;;;;7.74;89.66;99158.38;5076883;28;20560;-78
2023/03/14 09:23:03;;;;;;;2.28;0.63;;;;;;;7.60;90.01;99198.34;5074710;28;20044;-78
2023/03/14 09:25:30;;;;;;;3.13;0.50;;;;;;;7.43;89.41;99207.81;5067405;28;20080;-77
2023/03/14 09:27:57;;;;;;;2.20;0.70;;;;;;;7.25;87.76;99240.91;5068331;28;20052;-78
2023/03/14 09:30:24;;;;;;;7.13;0.43;;;;;;;7.04;86.29;99224.31;5081176;28;20037;-77
2023/03/14 09:32:51;;;;;;;2.38;0.57;;;;;;;6.94;87.05;99238.72;5068002;28;20041;-77
2023/03/14 09:35:18;;;;;;;4.72;0.75;;;;;;;6.90;87.84;99242.38;5067970;28;20547;-76
2023/03/14 09:37:45;;;;;;;3.28;0.77;;;;;;;6.91;87.58;99262.41;5065827;28;20041;-78
2023/03/14 09:40:15;;;;;;;4.25;0.73;;;;;;;6.92;87.56;99271.97;5066550;28;20813;-76
2023/03/14 09:42:42;;;;;;;5.63;0.80;;;;;;;6.89;88.33;99280.81;5067328;28;20905;-77
2023/03/14 09:45:28;;;;;;;3.33;0.70;;;;;;;6.90;87.75;99295.63;5066015;28;20131;-77
2023/03/14 09:47:58;;;;;;;5.22;1.05;;;;;;;6.93;88.00;99312.97;5068092;28;20033;-77
2023/03/14 09:50:38;;;;;;;2.85;0.85;;;;;;;7.05;88.33;99316.88;5067137;28;20768;-77
2023/03/14 09:53:16;;;;;;;2.80;0.50;;;;;;;7.18;86.28;99328.56;5046547;28;20370;-77
2023/03/14 09:55:46;;;;;;;4.82;0.60;;;;;;;7.26;85.78;99338.75;5064021;28;20044;-77
2023/03/14 09:58:20;;;;;;;1.70;0.50;;;;;;;7.25;85.21;99344.91;5067034;28;20119;-77
2023/03/14 10:00:51;;;;;;;5.07;0.75;;;;;;;7.27;84.74;99364.06;5066675;28;20037;-76
2023/03/14 10:03:31;;;;;;;8.85;1.20;;;;;;;7.46;84.57;99377.25;5066618;28;20548;-76
2023/03/14 10:05:58;;;;;;;4.03;1.05;;;;;;;7.63;83.83;99387.06;5067336;28;20049;-76
2023/03/14 10:08:26;;;;;;;2.97;0.50;;;;;;;7.82;83.63;99392.41;5069710;28;20152;-77
2023/03/14 10:10:54;;;;;;;4.57;0.60;;;;;;;7.92;79.83;99411.22;5069275;28;20052;-75
2023/03/14 10:13:29;;;;;;;2.10;0.70;;;;;;;7.92;80.90;99406.84;5070858;28;20115;-77
2023/03/14 10:16:03;;;;;;;1.98;0.88;;;;;;;7.94;81.57;99425.13;5069926;28;20099;-76
2023/03/14 10:18:34;;;;;;;3.25;1.10;;;;;;;7.87;80.89;99432.41;5070710;28;20579;-76
2023/03/14 10:21:25;;;;;;;3.00;0.80;;;;;;;7.87;80.20;99449.94;5069329;28;20527;-77
2023/03/14 10:23:53;;;;;;;2.17;0.60;;;;;;;7.91;79.88;99469.88;5069048;28;20048;-77
2023/03/14 10:26:27;;;;;;;2.10;0.40;;;;;;;8.00;78.70;99472.09;5087945;28;20872;-76
2023/03/14 10:29:16;;;;;;;;;;;;;;;7.89;77.96;99490.06;5085378;28;20113;-78
2023/03/14 10:32:00;;;;;;;3.28;0.98;;;;;;;7.76;78.26;99497.59;5084359;28;19924;-77
2023/03/14 10:34:33;;;;;;;;;;;;;;;7.73;78.24;99508.22;5073174;28;20531;-78
2023/03/14 10:37:25;;;;;;;1.63;0.50;;;;;;;7.64;76.90;99534.78;5071355;28;19932;-78
2023/03/14 10:39:58;;;;;;;5.22;0.70;;;;;;;7.50;77.15;99544.06;5062886;28;20037;-78
2023/03/14 10:42:31;;;;;;;2.22;0.40;;;;;;;7.43;77.16;99566.16;5071341;28;20061;-77
2023/03/14 10:45:05;;;;;;;5.72;0.70;;;;;;;7.34;77.56;99563.91;5069983;28;20049;-77
2023/03/14 10:47:33;;;;;;;5.03;0.88;;;;;;;7.46;78.03;99582.66;5069825;28;20948;-77
2023/03/14 10:50:28;;;;;;;16.25;1.35;;;;;;;7.58;77.85;99580.50;5069649;28;20044;-76
2023/03/14 10:53:00;;;;;;;3.42;0.93;;;;;;;7.73;76.81;99602.66;5067980;28;20041;-77
2023/03/14 10:55:42;;;;;;;4.55;0.90;;;;;;;7.86;76.34;99611.75;5073823;28;20091;-77
2023/03/14 10:58:26;;;;;;;5.13;1.00;;;;;;;7.96;74.84;99622.75;5069016;28;20048;-78
2023/03/14 11:01:09;;;;;;;7.20;1.73;;;;;;;8.04;75.88;99615.44;5070480;28;20468;-77
2023/03/14 11:03:42;;;;;;;7.75;1.67;;;;;;;8.26;74.37;99618.97;5054221;28;20509;-77
2023/03/14 11:06:22;;;;;;;10.68;1.17;;;;;;;8.45;73.64;99635.69;5068332;28;20045;-76
2023/03/14 11:09:05;;;;;;;6.80;1.30;;;;;;;8.68;72.67;99649.69;5069883;28;20464;-77
2023/03/14 11:11:33;;;;;;;11.15;1.30;;;;;;;8.74;68.42;99667.84;5067542;28;20076;-77
2023/03/14 11:14:33;;;;;;;12.30;1.70;;;;;;;8.78;68.77;99672.03;5068370;28;20045;-76
2023/03/14 11:17:27;;;;;;;10.43;1.70;;;;;;;8.78;71.37;99666.78;5065266;28;20055;-77
2023/03/14 11:20:17;;;;;;;10.95;1.70;;;;;;;8.92;70.02;99675.88;5063456;28;20053;-77
2023/03/14 11:23:15;;;;;;;13.00;2.17;;;;;;;9.05;69.24;99695.47;5055144;28;20076;-76
2023/03/14 11:26:34;;;;;;;16.38;2.20;;;;;;;8.88;68.44;99703.19;5065320;28;20108;-76
2023/03/14 11:29:40;;;;;;;15.52;2.00;;;;;;;8.79;66.00;99714.97;5068918;28;20137;-77
2023/03/14 11:32:40;;;;;;;12.25;1.60;;;;;;;8.69;66.34;99735.47;5057101;28;20552;-76
2023/03/14 11:35:34;;;;;;;13.45;1.75;;;;;;;8.47;67.22;99735.47;5068985;28;20060;-76
2023/03/14 11:38:37;;;;;;;14.73;2.33;;;;;;;8.05;70.24;99763.28;5069234;28;20040;-76
2023/03/14 11:41:17;;;;;;;9.18;1.23;;;;;;;7.71;69.20;99786.34;5066381;28;20052;-75
2023/03/14 11:43:52;;;;;;;13.15;2.00;;;;;;;7.42;71.06;99776.88;5076870;28;20895;-76
2023/03/14 11:46:35;;;;;;;12.45;2.42;;;;;;;7.33;71.80;99785.03;5065396;28;20504;-77
2023/03/14 11:49:38;;;;;;;11.77;2.05;;;;;;;7.35;74.14;99797.22;5055774;28;20041;-76
2023/03/14 11:52:20;;;;;;;17.27;2.63;;;;;;;7.47;74.72;99806.41;5067906;28;20045;-76
2023/03/14 11:54:58;;;;;;;8.77;1.65;;;;;;;7.52;74.84;99801.88;5068150;28;20045;-76
2023/03/14 11:57:26;;;;;;;10.60;1.75;;;;;;;7.60;75.00;99815.59;5068185;28;20041;-77
2023/03/14 12:00:18;;;;;;;13.15;1.60;;;;;;;7.67;73.95;99807.50;5066551;28;20045;-77
2023/03/14 12:03:21;;;;;;;11.25;1.90;;;;;;;7.66;73.84;99822.41;5068468;28;20127;-77
2023/03/14 12:05:57;;;;;;;13.10;1.67;;;;;;;7.59;75.11;99828.75;5054110;28;20087;-77
2023/03/14 12:08:44;;;;;;;12.63;1.50;;;;;;;7.46;74.25;99852.78;5068058;28;20051;-76